Time,TemperatureF,DewpointF,PressureIn,WindDirection,WindDirectionDegrees,WindSpeedMPH,WindSpeedGustMPH,Humidity,HourlyPrecipIn,Conditions,Clouds,dailyrainin,SoftwareType,DateUTC
2013-03-15 00:00:00,55.7,48.6,30.17,NNW,330,10.4,10.4,77,0.00,,OVC,0.00,WeatherDisplay:10.37,2013-03-15 04:00:00,
2013-03-15 00:05:00,55.6,48.5,30.17,NNW,331,9.2,9.2,77,0.00,,OVC,0.00,WeatherDisplay:10.37,2013-03-15 04:05:00,
2013-03-15 00:10:00,55.6,48.8,30.17,NNW,331,10.4,10.4,78,0.00,,OVC,0.00,WeatherDisplay:10.37,2013-03-15 04:10:00,
2013-03-15 00:15:00,55.4,48.7,30.17,NNW,329,11.5,11.5,78,0.00,,OVC,0.00,WeatherDisplay:10.37,2013-03-15 04:15:00,
2013-03-15 00:20:00,55.4,48.7,30.17,NNW,333,9.2,9.2,78,0.00,,OVC,0.00,WeatherDisplay:10.37,2013-03-15 04:20:00,
2013-03-15 00:25:00,55.3,48.6,30.17,NNW,331,11.5,11.5,78,0.00,,OVC,0.00,WeatherDisplay:10.37,2013-03-15 04:25:00,
2013-03-15 00:30:00,55.4,48.7,30.17,NW,325,11.5,11.5,78,0.00,,OVC,0.00,WeatherDisplay:10.37,2013-03-15 04:30:00,
2013-03-15 00:35:00,55.7,48.9,30.17,NNW,330,15.0,15.0,78,0.00,,OVC,0.00,WeatherDisplay:10.37,2013-03-15 04:35:00,
2013-03-15 00:40:00,55.9,48.8,30.17,NNW,340,13.8,13.8,77,0.00,,OVC,0.00,WeatherDisplay:10.37,2013-03-15 04:40:00,
2013-03-15 00:45:00,56.0,48.9,30.17,NNW,332,16.1,16.1,77,0.00,,OVC,0.00,WeatherDisplay:10.37,2013-03-15 04:45:00,
2013-03-15 00:50:00,56.0,48.9,30.17,North,355,15.0,15.0,77,0.00,,OVC,0.00,WeatherDisplay:10.37,2013-03-15 04:50:00,
2013-03-15 00:55:00,56.0,48.9,30.17,NW,324,16.1,16.1,77,0.00,,OVC,0.00,WeatherDisplay:10.37,2013-03-15 04:55:00,
2013-03-15 01:00:00,56.0,48.9,30.17,NNW,334,11.5,11.5,77,0.00,,OVC,0.00,WeatherDisplay:10.37,2013-03-15 05:00:00,
2013-03-15 01:05:00,56.0,48.9,30.17,NNW,336,10.4,10.4,77,0.00,CLR,OVC,0.00,WeatherDisplay:10.37,2013-03-15 05:05:00,
2013-03-15 01:10:00,55.9,48.8,30.17,NW,320,13.8,13.8,77,0.00,CLR,OVC,0.00,WeatherDisplay:10.37,2013-03-15 05:10:00,
2013-03-15 01:15:00,55.9,49.1,30.17,NW,321,10.0,10.0,78,0.00,CLR,OVC,0.00,WeatherDisplay:10.37,2013-03-15 05:15:00,
2013-03-15 01:20:00,55.9,49.1,30.17,NNW,329,10.4,10.4,78,0.00,CLR,OVC,0.00,WeatherDisplay:10.37,2013-03-15 05:20:00,
2013-03-15 01:25:00,55.7,48.9,30.17,NNW,340,10.0,10.0,78,0.00,CLR,OVC,0.00,WeatherDisplay:10.37,2013-03-15 05:25:00,
2013-03-15 01:30:00,55.9,49.1,30.17,WNW,303,10.4,10.4,78,0.00,CLR,OVC,0.00,WeatherDisplay:10.37,2013-03-15 05:30:00,
2013-03-15 01:35:00,55.9,49.1,30.17,NW,321,11.5,11.5,78,0.00,CLR,OVC,0.00,WeatherDisplay:10.37,2013-03-15 05:35:00,
2013-03-15 01:40:00,56.0,49.2,30.17,NW,317,15.0,15.0,78,0.00,CLR,OVC,0.00,WeatherDisplay:10.37,2013-03-15 05:40:00,
2013-03-15 01:45:00,56.0,48.9,30.17,NNW,337,13.8,13.8,77,0.00,CLR,OVC,0.00,WeatherDisplay:10.37,2013-03-15 05:45:00,
2013-03-15 01:50:00,56.0,48.9,30.17,NNW,327,11.5,11.5,77,0.00,CLR,OVC,0.00,WeatherDisplay:10.37,2013-03-15 05:50:00,
2013-03-15 01:55:00,56.0,48.9,30.17,NNW,342,24.0,24.0,77,0.00,CLR,OVC,0.00,WeatherDisplay:10.37,2013-03-15 05:55:00,
2013-03-15 02:00:00,56.2,49.1,30.16,NNW,331,16.1,16.1,77,0.00,CLR,OVC,0.00,WeatherDisplay:10.37,2013-03-15 06:00:00,
2013-03-15 02:05:00,56.2,49.1,30.16,NW,325,17.3,17.3,77,0.00,CLR,OVC,0.00,WeatherDisplay:10.37,2013-03-15 06:05:00,
2013-03-15 02:10:00,56.2,49.1,30.16,NNW,331,13.8,13.8,77,0.00,CLR,OVC,0.00,WeatherDisplay:10.37,2013-03-15 06:10:00,
2013-03-15 02:15:00,56.2,49.1,30.15,NNW,330,17.3,17.3,77,0.00,CLR,OVC,0.00,WeatherDisplay:10.37,2013-03-15 06:15:00,
2013-03-15 02:20:00,56.2,49.1,30.15,NNW,327,13.8,13.8,77,0.00,CLR,OVC,0.00,WeatherDisplay:10.37,2013-03-15 06:20:00,
2013-03-15 02:25:00,56.2,49.1,30.15,NNW,336,10.4,10.4,77,0.00,CLR,OVC,0.00,WeatherDisplay:10.37,2013-03-15 06:25:00,
2013-03-15 02:30:00,56.0,48.9,30.15,NNW,346,12.7,12.7,77,0.00,CLR,OVC,0.00,WeatherDisplay:10.37,2013-03-15 06:30:00,
2013-03-15 02:35:00,56.0,48.9,30.15,NW,319,11.5,11.5,77,0.00,CLR,OVC,0.00,WeatherDisplay:10.37,2013-03-15 06:35:00,
2013-03-15 02:40:00,55.9,48.8,30.15,WNW,300,16.0,16.0,77,0.00,CLR,OVC,0.00,WeatherDisplay:10.37,2013-03-15 06:40:00,
2013-03-15 02:46:00,55.9,48.8,30.15,NW,323,8.1,8.8,77,0.00,CLR,OVC,0.00,WeatherDisplay:10.37,2013-03-15 06:46:00,
2013-03-15 02:51:00,55.9,48.8,30.15,NNW,329,11.5,11.5,77,0.00,CLR,OVC,0.00,WeatherDisplay:10.37,2013-03-15 06:51:00,
2013-03-15 02:56:00,55.7,48.6,30.15,NW,321,10.4,10.4,77,0.00,CLR,OVC,0.00,WeatherDisplay:10.37,2013-03-15 06:56:00,
2013-03-15 03:01:00,55.7,48.6,30.14,NW,321,11.5,11.5,77,0.00,CLR,OVC,0.00,WeatherDisplay:10.37,2013-03-15 07:01:00,
2013-03-15 03:06:00,55.7,48.6,30.14,NW,321,11.5,11.5,77,0.00,CLR,OVC,0.00,WeatherDisplay:10.37,2013-03-15 07:06:00,
2013-03-15 03:11:00,55.6,48.2,30.14,NW,326,4.6,4.6,76,0.00,CLR,OVC,0.00,WeatherDisplay:10.37,2013-03-15 07:11:00,
2013-03-15 03:16:00,55.4,48.0,30.14,NW,321,11.5,11.5,76,0.00,CLR,OVC,0.00,WeatherDisplay:10.37,2013-03-15 07:16:00,
2013-03-15 03:21:00,55.4,47.6,30.14,NW,324,9.2,9.2,75,0.00,CLR,OVC,0.00,WeatherDisplay:10.37,2013-03-15 07:21:00,
2013-03-15 03:26:00,55.4,47.2,30.14,NNW,333,18.0,18.0,74,0.00,CLR,OVC,0.00,WeatherDisplay:10.37,2013-03-15 07:26:00,
2013-03-15 03:31:00,55.6,47.4,30.14,NNW,329,18.4,18.4,74,0.00,CLR,OVC,0.00,WeatherDisplay:10.37,2013-03-15 07:31:00,
2013-03-15 03:36:00,55.7,46.8,30.14,NNW,333,12.7,12.7,72,0.00,CLR,OVC,0.00,WeatherDisplay:10.37,2013-03-15 07:36:00,
2013-03-15 03:41:00,55.9,46.6,30.14,NNW,327,11.5,11.5,71,0.00,CLR,OVC,0.00,WeatherDisplay:10.37,2013-03-15 07:41:00,
2013-03-15 03:46:00,55.7,46.4,30.14,NNW,333,10.4,10.4,71,0.00,CLR,OVC,0.00,WeatherDisplay:10.37,2013-03-15 07:46:00,
2013-03-15 03:51:00,55.6,46.0,30.14,NW,318,13.8,13.8,70,0.00,CLR,OVC,0.00,WeatherDisplay:10.37,2013-03-15 07:51:00,
2013-03-15 03:56:00,55.4,45.4,30.14,NW,318,11.5,11.5,69,0.00,CLR,OVC,0.00,WeatherDisplay:10.37,2013-03-15 07:56:00,
2013-03-15 04:02:00,55.3,44.5,30.14,NW,323,11.5,11.5,67,0.00,CLR,OVC,0.00,WeatherDisplay:10.37,2013-03-15 08:02:00,
2013-03-15 04:07:00,55.3,44.5,30.14,WNW,300,15.0,15.0,67,0.00,CLR,OVC,0.00,WeatherDisplay:10.37,2013-03-15 08:07:00,
2013-03-15 04:12:00,55.1,43.9,30.14,NNW,327,12.7,12.7,66,0.00,CLR,OVC,0.00,WeatherDisplay:10.37,2013-03-15 08:12:00,
2013-03-15 04:17:00,55.1,44.3,30.14,NNW,329,13.8,13.8,67,0.00,CLR,OVC,0.00,WeatherDisplay:10.37,2013-03-15 08:17:00,
2013-03-15 04:22:00,55.0,44.2,30.14,NNW,331,9.2,9.2,67,0.00,CLR,OVC,0.00,WeatherDisplay:10.37,2013-03-15 08:22:00,
2013-03-15 04:27:00,54.8,44.0,30.14,NNW,337,12.7,12.7,67,0.00,CLR,OVC,0.00,WeatherDisplay:10.37,2013-03-15 08:27:00,
2013-03-15 04:32:00,54.7,44.0,30.14,NNW,332,11.5,11.5,67,0.00,CLR,OVC,0.00,WeatherDisplay:10.37,2013-03-15 08:32:00,
2013-03-15 04:37:00,54.5,44.2,30.14,NNW,342,13.8,13.8,68,0.00,CLR,OVC,0.00,WeatherDisplay:10.37,2013-03-15 08:37:00,
2013-03-15 04:42:00,54.5,44.2,30.14,NNW,336,10.4,10.4,68,0.00,CLR,OVC,0.00,WeatherDisplay:10.37,2013-03-15 08:42:00,
2013-03-15 04:47:00,54.2,44.2,30.14,NW,317,15.0,15.0,69,0.00,CLR,OVC,0.00,WeatherDisplay:10.37,2013-03-15 08:47:00,
2013-03-15 04:52:00,54.1,44.5,30.14,NW,311,10.4,10.4,70,0.00,CLR,OVC,0.00,WeatherDisplay:10.37,2013-03-15 08:52:00,
2013-03-15 04:57:00,53.9,44.3,30.14,NW,313,9.2,9.2,70,0.00,CLR,OVC,0.00,WeatherDisplay:10.37,2013-03-15 08:57:00,
2013-03-15 05:02:00,53.8,44.6,30.14,NW,307,6.9,6.9,71,0.00,,OVC,0.00,WeatherDisplay:10.37,2013-03-15 09:02:00,
2013-03-15 05:07:00,53.5,44.7,30.14,NW,317,13.8,13.8,72,0.00,,OVC,0.00,WeatherDisplay:10.37,2013-03-15 09:07:00,
2013-03-15 05:12:00,53.3,44.9,30.14,NW,311,13.8,13.8,73,0.00,,OVC,0.00,WeatherDisplay:10.37,2013-03-15 09:12:00,
2013-03-15 05:17:00,53.2,45.1,30.15,NW,309,10.4,10.4,74,0.00,,OVC,0.00,WeatherDisplay:10.37,2013-03-15 09:17:00,
2013-03-15 05:22:00,53.1,45.0,30.15,NW,321,9.2,9.2,74,0.00,,OVC,0.00,WeatherDisplay:10.37,2013-03-15 09:22:00,
2013-03-15 05:27:00,52.9,45.2,30.15,NW,321,8.1,8.1,75,0.00,,OVC,0.00,WeatherDisplay:10.37,2013-03-15 09:27:00,
2013-03-15 05:32:00,52.6,45.2,30.15,NW,324,6.9,6.9,76,0.00,,OVC,0.00,WeatherDisplay:10.37,2013-03-15 09:32:00,
2013-03-15 05:37:00,52.5,45.2,30.15,NW,323,6.9,6.9,76,0.00,,OVC,0.00,WeatherDisplay:10.37,2013-03-15 09:37:00,
2013-03-15 05:42:00,52.2,45.2,30.15,NW,323,8.1,8.1,77,0.00,,OVC,0.00,WeatherDisplay:10.37,2013-03-15 09:42:00,
2013-03-15 05:47:00,52.2,45.2,30.16,NNW,329,13.8,13.8,77,0.00,,OVC,0.00,WeatherDisplay:10.37,2013-03-15 09:47:00,
2013-03-15 05:52:00,52.0,45.0,30.16,NW,325,9.2,9.2,77,0.00,,OVC,0.00,WeatherDisplay:10.37,2013-03-15 09:52:00,
2013-03-15 05:57:00,52.0,45.0,30.16,NNW,329,11.5,11.5,77,0.00,,OVC,0.00,WeatherDisplay:10.37,2013-03-15 09:57:00,
2013-03-15 06:02:00,52.0,44.7,30.16,NW,309,10.4,10.4,76,0.00,CLR,OVC,0.00,WeatherDisplay:10.37,2013-03-15 10:02:00,
2013-03-15 06:07:00,52.0,44.7,30.16,NW,318,11.5,11.5,76,0.00,CLR,OVC,0.00,WeatherDisplay:10.37,2013-03-15 10:07:00,
2013-03-15 06:12:00,51.9,44.6,30.16,NW,320,15.0,15.0,76,0.00,CLR,OVC,0.00,WeatherDisplay:10.37,2013-03-15 10:12:00,
2013-03-15 06:17:00,51.9,44.6,30.17,NW,325,11.5,11.5,76,0.00,CLR,OVC,0.00,WeatherDisplay:10.37,2013-03-15 10:17:00,
2013-03-15 06:22:00,51.9,44.6,30.17,NW,315,12.0,12.0,76,0.00,CLR,OVC,0.00,WeatherDisplay:10.37,2013-03-15 10:22:00,
2013-03-15 06:27:00,51.7,44.4,30.17,NW,323,11.5,11.5,76,0.00,CLR,OVC,0.00,WeatherDisplay:10.37,2013-03-15 10:27:00,
2013-03-15 06:32:00,51.7,44.4,30.18,NW,325,17.3,17.3,76,0.00,CLR,OVC,0.00,WeatherDisplay:10.37,2013-03-15 10:32:00,
2013-03-15 06:37:00,51.7,44.4,30.18,NW,325,11.5,11.5,76,0.00,CLR,OVC,0.00,WeatherDisplay:10.37,2013-03-15 10:37:00,
2013-03-15 06:42:00,51.6,44.6,30.18,NNW,327,10.4,10.4,77,0.00,CLR,OVC,0.00,WeatherDisplay:10.37,2013-03-15 10:42:00,
2013-03-15 06:47:00,51.7,44.4,30.18,NW,320,10.4,10.4,76,0.00,CLR,OVC,0.00,WeatherDisplay:10.37,2013-03-15 10:47:00,
2013-03-15 06:52:00,51.7,44.4,30.18,NW,319,12.7,12.7,76,0.00,CLR,OVC,0.00,WeatherDisplay:10.37,2013-03-15 10:52:00,
2013-03-15 06:57:00,51.7,44.4,30.18,NNW,327,11.5,11.5,76,0.00,CLR,OVC,0.00,WeatherDisplay:10.37,2013-03-15 10:57:00,
2013-03-15 07:02:00,51.7,44.4,30.18,NW,322,9.2,9.2,76,0.00,CLR,OVC,0.00,WeatherDisplay:10.37,2013-03-15 11:02:00,
2013-03-15 07:08:00,51.7,44.4,30.18,NW,323,13.8,13.8,76,0.00,CLR,OVC,0.00,WeatherDisplay:10.37,2013-03-15 11:08:00,
2013-03-15 07:13:00,51.6,43.9,30.18,NW,323,10.4,10.4,75,0.00,CLR,OVC,0.00,WeatherDisplay:10.37,2013-03-15 11:13:00,
2013-03-15 07:18:00,51.6,43.9,30.18,NW,323,8.1,8.1,75,0.00,CLR,OVC,0.00,WeatherDisplay:10.37,2013-03-15 11:18:00,
2013-03-15 07:23:00,51.4,43.7,30.18,NW,319,7.0,7.0,75,0.00,CLR,OVC,0.00,WeatherDisplay:10.37,2013-03-15 11:23:00,
2013-03-15 07:28:00,51.4,43.7,30.18,NW,324,6.9,6.9,75,0.00,CLR,OVC,0.00,WeatherDisplay:10.37,2013-03-15 11:28:00,
2013-03-15 07:33:00,51.3,43.6,30.19,NW,309,10.4,10.4,75,0.00,CLR,OVC,0.00,WeatherDisplay:10.37,2013-03-15 11:33:00,
2013-03-15 07:38:00,51.4,43.7,30.19,NNW,333,12.7,12.7,75,0.00,CLR,OVC,0.00,WeatherDisplay:10.37,2013-03-15 11:38:00,
2013-03-15 07:43:00,51.6,43.6,30.19,North,355,13.8,13.8,74,0.00,CLR,OVC,0.00,WeatherDisplay:10.37,2013-03-15 11:43:00,
2013-03-15 07:48:00,51.7,43.7,30.19,NNW,337,13.8,13.8,74,0.00,CLR,OVC,0.00,WeatherDisplay:10.37,2013-03-15 11:48:00,
2013-03-15 07:53:00,51.9,43.9,30.19,NNW,331,11.5,11.5,74,0.00,CLR,OVC,0.00,WeatherDisplay:10.37,2013-03-15 11:53:00,
2013-03-15 07:58:00,52.0,43.6,30.19,NNE,13,13.8,13.8,73,0.00,CLR,OVC,0.00,WeatherDisplay:10.37,2013-03-15 11:58:00,
2013-03-15 08:03:00,52.2,43.8,30.20,NW,325,8.1,8.1,73,0.00,CLR,OVC,0.00,WeatherDisplay:10.37,2013-03-15 12:03:00,
2013-03-15 08:08:00,52.3,43.9,30.20,NW,325,0.0,0.0,73,0.00,CLR,OVC,0.00,WeatherDisplay:10.37,2013-03-15 12:08:00,
2013-03-15 08:13:00,52.5,43.7,30.20,NW,316,13.8,13.8,72,0.00,CLR,OVC,0.00,WeatherDisplay:10.37,2013-03-15 12:13:00,
2013-03-15 08:18:00,52.6,43.8,30.20,NNW,327,11.5,11.5,72,0.00,CLR,OVC,0.00,WeatherDisplay:10.37,2013-03-15 12:18:00,
2013-03-15 08:23:00,52.8,43.7,30.20,NNW,337,14.0,14.0,71,0.00,CLR,OVC,0.00,WeatherDisplay:10.37,2013-03-15 12:23:00,
2013-03-15 08:28:00,53.1,43.6,30.20,NNW,329,11.5,11.5,70,0.00,CLR,OVC,0.00,WeatherDisplay:10.37,2013-03-15 12:28:00,
2013-03-15 08:33:00,53.3,43.8,30.21,NW,314,12.7,12.7,70,0.00,CLR,OVC,0.00,WeatherDisplay:10.37,2013-03-15 12:33:00,
2013-03-15 08:38:00,53.8,44.2,30.21,North,350,13.8,13.8,70,0.00,CLR,OVC,0.00,WeatherDisplay:10.37,2013-03-15 12:38:00,
2013-03-15 08:43:00,54.1,44.2,30.21,NNW,337,13.8,13.8,69,0.00,CLR,OVC,0.00,WeatherDisplay:10.37,2013-03-15 12:43:00,
2013-03-15 08:48:00,54.5,44.2,30.21,NW,320,15.0,15.0,68,0.00,CLR,OVC,0.00,WeatherDisplay:10.37,2013-03-15 12:48:00,
2013-03-15 08:53:00,54.8,44.0,30.21,NNW,327,16.1,16.1,67,0.00,CLR,OVC,0.00,WeatherDisplay:10.37,2013-03-15 12:53:00,
2013-03-15 08:58:00,55.3,44.1,30.21,NNW,335,15.0,15.0,66,0.00,CLR,OVC,0.00,WeatherDisplay:10.37,2013-03-15 12:58:00,
2013-03-15 09:03:00,55.7,44.5,30.22,NNW,333,18.0,18.0,66,0.00,CLR,OVC,0.00,WeatherDisplay:10.37,2013-03-15 13:03:00,
2013-03-15 09:08:00,56.0,44.8,30.22,NNW,338,8.0,8.0,66,0.00,CLR,OVC,0.00,WeatherDisplay:10.37,2013-03-15 13:08:00,
2013-03-15 09:13:00,56.5,44.5,30.22,NNW,346,11.5,11.5,64,0.00,CLR,OVC,0.00,WeatherDisplay:10.37,2013-03-15 13:13:00,
2013-03-15 09:18:00,56.9,44.8,30.22,NW,319,19.6,19.6,64,0.00,CLR,OVC,0.00,WeatherDisplay:10.37,2013-03-15 13:18:00,
2013-03-15 09:23:00,57.2,44.3,30.22,NNW,343,15.0,15.0,62,0.00,CLR,OVC,0.00,WeatherDisplay:10.37,2013-03-15 13:23:00,
2013-03-15 09:28:00,57.5,44.6,30.22,NNW,335,13.8,13.8,62,0.00,CLR,OVC,0.00,WeatherDisplay:10.37,2013-03-15 13:28:00,
2013-03-15 09:33:00,57.8,44.4,30.22,NW,308,17.3,17.3,61,0.00,CLR,OVC,0.00,WeatherDisplay:10.37,2013-03-15 13:33:00,
2013-03-15 09:38:00,58.3,44.5,30.22,NW,308,11.5,11.5,60,0.00,CLR,OVC,0.00,WeatherDisplay:10.37,2013-03-15 13:38:00,
2013-03-15 09:43:00,58.6,44.8,30.22,NNW,338,12.7,12.7,60,0.00,CLR,OVC,0.00,WeatherDisplay:10.37,2013-03-15 13:43:00,
2013-03-15 09:48:00,59.0,45.1,30.22,NNW,327,15.0,15.0,60,0.00,CLR,OVC,0.00,WeatherDisplay:10.37,2013-03-15 13:48:00,
2013-03-15 09:53:00,59.3,45.0,30.22,WNW,290,18.4,18.4,59,0.00,CLR,OVC,0.00,WeatherDisplay:10.37,2013-03-15 13:53:00,
2013-03-15 09:58:00,59.6,45.2,30.22,NNW,329,17.3,17.3,59,0.00,CLR,OVC,0.00,WeatherDisplay:10.37,2013-03-15 13:58:00,
2013-03-15 10:03:00,60.1,45.3,30.22,NW,321,13.8,13.8,58,0.00,CLR,OVC,0.00,WeatherDisplay:10.37,2013-03-15 14:03:00,
2013-03-15 10:08:00,60.7,45.4,30.22,NNW,340,17.3,17.3,57,0.00,CLR,OVC,0.00,WeatherDisplay:10.37,2013-03-15 14:08:00,
2013-03-15 10:13:00,60.9,45.1,30.22,NNW,327,11.5,11.5,56,0.00,CLR,OVC,0.00,WeatherDisplay:10.37,2013-03-15 14:13:00,
2013-03-15 10:18:00,61.3,45.9,30.22,NNW,342,13.0,13.0,57,0.00,CLR,OVC,0.00,WeatherDisplay:10.37,2013-03-15 14:18:00,
2013-03-15 10:23:00,61.6,45.7,30.22,NW,318,11.0,11.0,56,0.00,CLR,OVC,0.00,WeatherDisplay:10.37,2013-03-15 14:23:00,
2013-03-15 10:28:00,62.1,46.2,30.22,NW,323,11.5,11.5,56,0.00,CLR,OVC,0.00,WeatherDisplay:10.37,2013-03-15 14:28:00,
2013-03-15 10:33:00,62.7,46.8,30.22,NW,322,16.1,16.1,56,0.00,CLR,OVC,0.00,WeatherDisplay:10.37,2013-03-15 14:33:00,
2013-03-15 10:38:00,63.1,47.1,30.22,NW,305,11.5,11.5,56,0.00,CLR,OVC,0.00,WeatherDisplay:10.37,2013-03-15 14:38:00,
2013-03-15 10:43:00,63.4,46.5,30.22,NNW,331,16.0,16.0,54,0.00,CLR,OVC,0.00,WeatherDisplay:10.37,2013-03-15 14:43:00,
2013-03-15 10:48:00,63.7,47.2,30.22,NNW,336,15.0,15.0,55,0.00,CLR,OVC,0.00,WeatherDisplay:10.37,2013-03-15 14:48:00,
2013-03-15 10:53:00,63.7,47.2,30.22,NNW,340,16.1,16.1,55,0.00,CLR,OVC,0.00,WeatherDisplay:10.37,2013-03-15 14:53:00,
2013-03-15 10:58:00,63.9,46.9,30.22,WNW,303,10.0,10.0,54,0.00,CLR,OVC,0.00,WeatherDisplay:10.37,2013-03-15 14:58:00,
2013-03-15 11:03:00,64.3,47.8,30.22,NNW,346,13.0,13.0,55,0.00,CLR,OVC,0.00,WeatherDisplay:10.37,2013-03-15 15:03:00,
2013-03-15 11:08:00,64.3,47.3,30.22,NNW,342,15.0,15.0,54,0.00,CLR,OVC,0.00,WeatherDisplay:10.37,2013-03-15 15:08:00,
2013-03-15 11:13:00,64.5,47.5,30.22,North,360,17.3,17.3,54,0.00,CLR,OVC,0.00,WeatherDisplay:10.37,2013-03-15 15:13:00,
2013-03-15 11:19:00,64.7,48.2,30.22,NW,325,13.8,13.8,55,0.00,CLR,OVC,0.00,WeatherDisplay:10.37,2013-03-15 15:19:00,
2013-03-15 11:24:00,65.2,48.1,30.22,NW,318,15.0,15.0,54,0.00,CLR,OVC,0.00,WeatherDisplay:10.37,2013-03-15 15:24:00,
2013-03-15 11:29:00,65.6,48.0,30.22,NNW,341,13.8,13.8,53,0.00,CLR,OVC,0.00,WeatherDisplay:10.37,2013-03-15 15:29:00,
2013-03-15 11:34:00,65.8,48.2,30.21,NNW,329,14.0,14.0,53,0.00,CLR,OVC,0.00,WeatherDisplay:10.37,2013-03-15 15:34:00,
2013-03-15 11:39:00,66.0,47.9,30.21,NW,326,19.6,19.6,52,0.00,CLR,OVC,0.00,WeatherDisplay:10.37,2013-03-15 15:39:00,
2013-03-15 11:44:00,66.1,48.5,30.21,NW,312,11.5,11.5,53,0.00,CLR,OVC,0.00,WeatherDisplay:10.37,2013-03-15 15:44:00,
2013-03-15 11:49:00,66.8,48.6,30.21,WNW,300,12.7,12.7,52,0.00,CLR,OVC,0.00,WeatherDisplay:10.37,2013-03-15 15:49:00,
2013-03-15 11:54:00,66.9,48.7,30.21,NW,304,13.8,13.8,52,0.00,CLR,OVC,0.00,WeatherDisplay:10.37,2013-03-15 15:54:00,
2013-03-15 11:59:00,67.1,48.9,30.21,NNW,345,23.0,23.0,52,0.00,CLR,OVC,0.00,WeatherDisplay:10.37,2013-03-15 15:59:00,
2013-03-15 12:04:00,67.1,48.4,30.21,NNW,344,20.7,20.7,51,0.00,,OVC,0.00,WeatherDisplay:10.37,2013-03-15 16:04:00,
2013-03-15 12:09:00,67.3,49.1,30.21,NNE,22,20.7,20.7,52,0.00,,OVC,0.00,WeatherDisplay:10.37,2013-03-15 16:09:00,
2013-03-15 12:14:00,67.8,48.5,30.21,NNW,331,17.3,17.3,50,0.00,,OVC,0.00,WeatherDisplay:10.37,2013-03-15 16:14:00,
2013-03-15 12:19:00,67.9,49.1,30.21,NNE,27,11.5,11.5,51,0.00,,OVC,0.00,WeatherDisplay:10.37,2013-03-15 16:19:00,
2013-03-15 12:24:00,68.1,48.2,30.21,NE,46,21.9,21.9,49,0.00,,OVC,0.00,WeatherDisplay:10.37,2013-03-15 16:24:00,
2013-03-15 12:29:00,68.1,49.3,30.21,NE,47,5.8,5.8,51,0.00,,OVC,0.00,WeatherDisplay:10.37,2013-03-15 16:29:00,
2013-03-15 12:34:00,68.4,48.5,30.21,North,5,21.9,21.9,49,0.00,,OVC,0.00,WeatherDisplay:10.37,2013-03-15 16:34:00,
2013-03-15 12:39:00,68.6,48.7,30.21,NNE,30,9.2,9.2,49,0.00,,OVC,0.00,WeatherDisplay:10.37,2013-03-15 16:39:00,
2013-03-15 12:44:00,68.9,48.4,30.20,NNE,24,22.0,22.0,48,0.00,,OVC,0.00,WeatherDisplay:10.37,2013-03-15 16:44:00,
2013-03-15 12:49:00,68.9,47.3,30.20,NNE,33,19.6,19.6,46,0.00,,OVC,0.00,WeatherDisplay:10.37,2013-03-15 16:49:00,
2013-03-15 12:54:00,69.4,49.4,30.20,NNE,28,20.0,20.0,49,0.00,,OVC,0.00,WeatherDisplay:10.37,2013-03-15 16:54:00,
2013-03-15 12:59:00,69.8,45.7,30.20,ENE,61,12.7,12.7,42,0.00,,OVC,0.00,WeatherDisplay:10.37,2013-03-15 16:59:00,
2013-03-15 13:04:00,70.4,48.6,30.20,NNE,30,0.0,0.0,46,0.00,,OVC,0.00,WeatherDisplay:10.37,2013-03-15 17:04:00,
2013-03-15 13:09:00,70.4,48.6,30.20,NNE,26,17.3,17.3,46,0.00,,OVC,0.00,WeatherDisplay:10.37,2013-03-15 17:09:00,
2013-03-15 13:14:00,70.1,47.8,30.19,North,360,8.1,8.1,45,0.00,,OVC,0.00,WeatherDisplay:10.37,2013-03-15 17:14:00,
2013-03-15 13:19:00,70.3,47.3,30.19,NE,38,19.6,19.6,44,0.00,,OVC,0.00,WeatherDisplay:10.37,2013-03-15 17:19:00,
2013-03-15 13:24:00,70.3,47.3,30.19,NE,56,19.6,19.6,44,0.00,,OVC,0.00,WeatherDisplay:10.37,2013-03-15 17:24:00,
2013-03-15 13:29:00,70.3,46.1,30.18,NE,46,18.4,18.4,42,0.00,,OVC,0.00,WeatherDisplay:10.37,2013-03-15 17:29:00,
2013-03-15 13:34:00,70.9,46.0,30.18,ENE,69,19.6,19.6,41,0.00,,OVC,0.00,WeatherDisplay:10.37,2013-03-15 17:34:00,
2013-03-15 13:39:00,70.9,45.4,30.18,NNE,15,21.9,21.9,40,0.00,,OVC,0.00,WeatherDisplay:10.37,2013-03-15 17:39:00,
2013-03-15 13:44:00,70.9,45.4,30.17,NNW,329,18.4,18.4,40,0.00,,OVC,0.00,WeatherDisplay:10.37,2013-03-15 17:44:00,
2013-03-15 13:49:00,70.9,45.4,30.17,NW,317,19.6,19.6,40,0.00,,OVC,0.00,WeatherDisplay:10.37,2013-03-15 17:49:00,
2013-03-15 13:54:00,71.1,46.2,30.17,NNW,339,11.5,11.5,41,0.00,,OVC,0.00,WeatherDisplay:10.37,2013-03-15 17:54:00,
2013-03-15 13:59:00,71.5,47.2,30.17,NE,36,13.0,13.0,42,0.00,,OVC,0.00,WeatherDisplay:10.37,2013-03-15 17:59:00,
2013-03-15 14:04:00,72.0,47.6,30.17,NNW,345,10.0,10.0,42,0.00,,OVC,0.00,WeatherDisplay:10.37,2013-03-15 18:04:00,
2013-03-15 14:09:00,72.0,45.0,30.17,NNE,19,17.3,17.3,38,0.00,,OVC,0.00,WeatherDisplay:10.37,2013-03-15 18:09:00,
2013-03-15 14:14:00,71.8,42.7,30.16,NE,50,17.3,17.3,35,0.00,,OVC,0.00,WeatherDisplay:10.37,2013-03-15 18:14:00,
2013-03-15 14:19:00,71.6,46.6,30.16,NNE,29,18.4,18.4,41,0.00,,OVC,0.00,WeatherDisplay:10.37,2013-03-15 18:19:00,
2013-03-15 14:24:00,71.5,47.8,30.16,NW,315,11.5,11.5,43,0.00,,OVC,0.00,WeatherDisplay:10.37,2013-03-15 18:24:00,
2013-03-15 14:29:00,71.6,47.3,30.15,ENE,71,24.2,24.2,42,0.00,,OVC,0.00,WeatherDisplay:10.37,2013-03-15 18:29:00,
2013-03-15 14:34:00,71.3,47.0,30.15,ENE,74,17.3,17.3,42,0.00,,OVC,0.00,WeatherDisplay:10.37,2013-03-15 18:34:00,
2013-03-15 14:39:00,71.3,47.0,30.15,NNE,30,17.3,17.3,42,0.00,,OVC,0.00,WeatherDisplay:10.37,2013-03-15 18:39:00,
2013-03-15 14:44:00,71.8,48.1,30.15,North,5,19.6,19.6,43,0.00,,OVC,0.00,WeatherDisplay:10.37,2013-03-15 18:44:00,
2013-03-15 14:49:00,71.3,47.6,30.15,ENE,73,10.4,10.4,43,0.00,,OVC,0.00,WeatherDisplay:10.37,2013-03-15 18:49:00,
2013-03-15 14:54:00,71.6,47.9,30.15,NNW,340,9.0,9.0,43,0.00,,OVC,0.00,WeatherDisplay:10.37,2013-03-15 18:54:00,
2013-03-15 14:59:00,71.5,47.2,30.15,NNE,15,23.0,23.0,42,0.00,,OVC,0.00,WeatherDisplay:10.37,2013-03-15 18:59:00,
2013-03-15 15:04:00,71.3,47.6,30.15,NE,55,22.0,22.0,43,0.00,,OVC,0.00,WeatherDisplay:10.37,2013-03-15 19:04:00,
2013-03-15 15:09:00,71.3,47.0,30.15,ENE,67,15.0,15.0,42,0.00,,OVC,0.00,WeatherDisplay:10.37,2013-03-15 19:09:00,
2013-03-15 15:15:00,70.9,46.7,30.14,NE,35,23.0,23.0,42,0.00,,OVC,0.00,WeatherDisplay:10.37,2013-03-15 19:15:00,
2013-03-15 15:20:00,70.9,47.3,30.14,NE,37,13.0,13.0,43,0.00,,OVC,0.00,WeatherDisplay:10.37,2013-03-15 19:20:00,
2013-03-15 15:25:00,71.3,46.4,30.14,NNE,30,16.1,16.1,41,0.00,,OVC,0.00,WeatherDisplay:10.37,2013-03-15 19:25:00,
2013-03-15 15:30:00,71.3,47.0,30.13,NE,35,17.3,17.3,42,0.00,,OVC,0.00,WeatherDisplay:10.37,2013-03-15 19:30:00,
2013-03-15 15:35:00,71.1,46.2,30.13,NNW,340,10.4,0.0,41,0.00,,OVC,0.00,WeatherDisplay:10.37,2013-03-15 19:35:00,
2013-03-15 15:40:00,71.5,47.2,30.13,NE,55,18.4,18.4,42,0.00,,OVC,0.00,WeatherDisplay:10.37,2013-03-15 19:40:00,
2013-03-15 15:45:00,71.5,47.8,30.13,North,355,8.1,0.0,43,0.00,,OVC,0.00,WeatherDisplay:10.37,2013-03-15 19:45:00,
2013-03-15 15:50:00,71.8,46.8,30.13,NE,49,20.7,20.7,41,0.00,,OVC,0.00,WeatherDisplay:10.37,2013-03-15 19:50:00,
2013-03-15 15:55:00,71.1,46.2,30.13,North,5,17.3,17.3,41,0.00,,OVC,0.00,WeatherDisplay:10.37,2013-03-15 19:55:00,
2013-03-15 16:00:00,70.8,47.8,30.12,ENE,58,15.0,15.0,44,0.00,,OVC,0.00,WeatherDisplay:10.37,2013-03-15 20:00:00,
2013-03-15 16:05:00,70.8,47.8,30.12,ENE,78,23.0,23.0,44,0.00,,OVC,0.00,WeatherDisplay:10.37,2013-03-15 20:05:00,
2013-03-15 16:10:00,70.8,47.8,30.12,NNE,33,12.7,12.7,44,0.00,,OVC,0.00,WeatherDisplay:10.37,2013-03-15 20:10:00,
2013-03-15 16:15:00,71.1,48.1,30.12,NNE,20,17.3,17.3,44,0.00,,OVC,0.00,WeatherDisplay:10.37,2013-03-15 20:15:00,
2013-03-15 16:20:00,71.1,47.5,30.12,ENE,66,15.0,15.0,43,0.00,,OVC,0.00,WeatherDisplay:10.37,2013-03-15 20:20:00,
2013-03-15 16:25:00,71.1,46.8,30.12,East,82,17.3,17.3,42,0.00,,OVC,0.00,WeatherDisplay:10.37,2013-03-15 20:25:00,
2013-03-15 16:30:00,71.1,48.1,30.12,East,80,8.1,8.1,44,0.00,,OVC,0.00,WeatherDisplay:10.37,2013-03-15 20:30:00,
2013-03-15 16:35:00,71.5,47.2,30.12,NNE,19,5.8,5.8,42,0.00,,OVC,0.00,WeatherDisplay:10.37,2013-03-15 20:35:00,
2013-03-15 16:40:00,71.1,48.1,30.12,ENE,66,4.6,4.6,44,0.00,,OVC,0.00,WeatherDisplay:10.37,2013-03-15 20:40:00,
2013-03-15 16:45:00,70.9,48.5,30.12,ENE,77,1.2,0.0,45,0.00,,OVC,0.00,WeatherDisplay:10.37,2013-03-15 20:45:00,
2013-03-15 16:50:00,70.6,48.8,30.12,NE,40,19.6,19.6,46,0.00,,OVC,0.00,WeatherDisplay:10.37,2013-03-15 20:50:00,
2013-03-15 16:55:00,70.1,50.0,30.12,NE,45,12.7,12.7,49,0.00,,OVC,0.00,WeatherDisplay:10.37,2013-03-15 20:55:00,
2013-03-15 17:00:00,69.9,49.9,30.12,ENE,63,16.1,16.1,49,0.00,,OVC,0.00,WeatherDisplay:10.37,2013-03-15 21:00:00,
2013-03-15 17:05:00,69.6,49.6,30.12,North,351,4.6,4.6,49,0.00,,OVC,0.00,WeatherDisplay:10.37,2013-03-15 21:05:00,
2013-03-15 17:10:00,69.9,49.9,30.12,NE,51,12.7,12.7,49,0.00,,OVC,0.00,WeatherDisplay:10.37,2013-03-15 21:10:00,
2013-03-15 17:15:00,70.3,49.7,30.12,East,90,9.2,9.2,48,0.00,,OVC,0.00,WeatherDisplay:10.37,2013-03-15 21:15:00,
2013-03-15 17:20:00,70.4,49.2,30.12,NE,49,9.2,9.2,47,0.00,,OVC,0.00,WeatherDisplay:10.37,2013-03-15 21:20:00,
2013-03-15 17:25:00,70.3,50.2,30.12,NNE,21,5.8,5.8,49,0.00,,OVC,0.00,WeatherDisplay:10.37,2013-03-15 21:25:00,
2013-03-15 17:30:00,69.9,49.9,30.12,ENE,69,11.5,11.5,49,0.00,,OVC,0.00,WeatherDisplay:10.37,2013-03-15 21:30:00,
2013-03-15 17:35:00,69.9,49.9,30.12,NE,47,13.8,13.8,49,0.00,,OVC,0.00,WeatherDisplay:10.37,2013-03-15 21:35:00,
2013-03-15 17:40:00,69.9,50.4,30.12,North,11,2.3,0.0,50,0.00,,OVC,0.00,WeatherDisplay:10.37,2013-03-15 21:40:00,
2013-03-15 17:45:00,70.3,50.2,30.12,East,79,0.0,0.0,49,0.00,,OVC,0.00,WeatherDisplay:10.37,2013-03-15 21:45:00,
2013-03-15 17:50:00,70.4,50.9,30.12,NE,38,13.8,13.8,50,0.00,,OVC,0.00,WeatherDisplay:10.37,2013-03-15 21:50:00,
2013-03-15 17:55:00,70.3,50.2,30.12,East,84,6.9,6.9,49,0.00,,OVC,0.00,WeatherDisplay:10.37,2013-03-15 21:55:00,
2013-03-15 18:00:00,69.9,50.4,30.12,ENE,75,15.0,15.0,50,0.00,,OVC,0.00,WeatherDisplay:10.37,2013-03-15 22:00:00,
2013-03-15 18:05:00,69.4,49.9,30.12,NE,35,9.2,9.2,50,0.00,,OVC,0.00,WeatherDisplay:10.37,2013-03-15 22:05:00,
2013-03-15 18:10:00,69.3,50.4,30.12,NE,42,0.0,0.0,51,0.00,,OVC,0.00,WeatherDisplay:10.37,2013-03-15 22:10:00,
2013-03-15 18:15:00,69.4,49.9,30.12,ENE,65,11.5,11.5,50,0.00,,OVC,0.00,WeatherDisplay:10.37,2013-03-15 22:15:00,
2013-03-15 18:20:00,69.1,49.1,30.12,North,355,18.4,18.4,49,0.00,,OVC,0.00,WeatherDisplay:10.37,2013-03-15 22:20:00,
2013-03-15 18:25:00,68.9,49.5,30.12,North,5,11.5,11.5,50,0.00,,OVC,0.00,WeatherDisplay:10.37,2013-03-15 22:25:00,
2013-03-15 18:30:00,68.8,49.4,30.12,NE,48,6.9,6.9,50,0.00,,OVC,0.00,WeatherDisplay:10.37,2013-03-15 22:30:00,
2013-03-15 18:35:00,68.6,49.7,30.12,NE,50,0.0,0.0,51,0.00,,OVC,0.00,WeatherDisplay:10.37,2013-03-15 22:35:00,
2013-03-15 18:40:00,68.4,49.6,30.12,ENE,75,3.5,3.5,51,0.00,,OVC,0.00,WeatherDisplay:10.37,2013-03-15 22:40:00,
2013-03-15 18:45:00,68.4,50.1,30.12,ENE,69,12.7,12.7,52,0.00,,OVC,0.00,WeatherDisplay:10.37,2013-03-15 22:45:00,
2013-03-15 18:50:00,68.3,50.0,30.12,ESE,120,4.6,4.6,52,0.00,,OVC,0.00,WeatherDisplay:10.37,2013-03-15 22:50:00,
2013-03-15 18:55:00,68.1,49.8,30.12,East,98,0.0,0.0,52,0.00,,OVC,0.00,WeatherDisplay:10.37,2013-03-15 22:55:00,
2013-03-15 19:00:00,67.9,49.6,30.13,NE,50,0.0,0.0,52,0.00,,OVC,0.00,WeatherDisplay:10.37,2013-03-15 23:00:00,
2013-03-15 19:05:00,67.8,49.5,30.13,ENE,61,0.0,0.0,52,0.00,,OVC,0.00,WeatherDisplay:10.37,2013-03-15 23:05:00,
2013-03-15 19:10:00,67.4,49.2,30.13,ENE,70,9.2,9.2,52,0.00,,OVC,0.00,WeatherDisplay:10.37,2013-03-15 23:10:00,
2013-03-15 19:15:00,67.3,49.1,30.13,ENE,62,12.7,12.7,52,0.00,,OVC,0.00,WeatherDisplay:10.37,2013-03-15 23:15:00,
2013-03-15 19:20:00,67.1,49.4,30.13,ENE,57,10.4,10.4,53,0.00,,OVC,0.00,WeatherDisplay:10.37,2013-03-15 23:20:00,
2013-03-15 19:25:00,66.8,49.1,30.13,ENE,58,1.2,0.0,53,0.00,,OVC,0.00,WeatherDisplay:10.37,2013-03-15 23:25:00,
2013-03-15 19:30:00,66.6,49.4,30.13,ENE,62,0.0,0.0,54,0.00,,OVC,0.00,WeatherDisplay:10.37,2013-03-15 23:30:00,
2013-03-15 19:35:00,66.3,49.2,30.13,ENE,63,0.0,0.0,54,0.00,,OVC,0.00,WeatherDisplay:10.37,2013-03-15 23:35:00,
2013-03-15 19:40:00,66.1,49.5,30.13,ENE,62,0.0,0.0,55,0.00,,OVC,0.00,WeatherDisplay:10.37,2013-03-15 23:40:00,
2013-03-15 19:45:00,65.8,49.7,30.13,ENE,63,3.5,0.0,56,0.00,,OVC,0.00,WeatherDisplay:10.37,2013-03-15 23:45:00,
2013-03-15 19:50:00,65.6,49.0,30.13,ENE,63,4.6,4.6,55,0.00,,OVC,0.00,WeatherDisplay:10.37,2013-03-15 23:50:00,
2013-03-15 19:55:00,65.5,49.4,30.13,ENE,63,0.0,0.6,56,0.00,,OVC,0.00,WeatherDisplay:10.37,2013-03-15 23:55:00,
2013-03-15 20:00:00,65.3,49.2,30.13,ENE,63,6.9,6.9,56,0.00,,OVC,0.00,WeatherDisplay:10.37,2013-03-16 00:00:00,
2013-03-15 20:05:00,65.3,49.2,30.13,ENE,63,4.6,0.0,56,0.00,,OVC,0.00,WeatherDisplay:10.37,2013-03-16 00:05:00,
2013-03-15 20:10:00,65.2,49.6,30.13,ENE,63,0.0,0.0,57,0.00,,OVC,0.00,WeatherDisplay:10.37,2013-03-16 00:10:00,
2013-03-15 20:15:00,65.0,49.9,30.13,ENE,63,0.0,0.0,58,0.00,,OVC,0.00,WeatherDisplay:10.37,2013-03-16 00:15:00,
2013-03-15 20:20:00,64.7,49.6,30.13,ENE,62,2.3,2.3,58,0.00,,OVC,0.00,WeatherDisplay:10.37,2013-03-16 00:20:00,
2013-03-15 20:25:00,64.5,49.4,30.13,ENE,62,2.3,2.3,58,0.00,,OVC,0.00,WeatherDisplay:10.37,2013-03-16 00:25:00,
2013-03-15 20:31:00,64.5,49.8,30.14,ENE,62,1.2,0.0,59,0.00,,OVC,0.00,WeatherDisplay:10.37,2013-03-16 00:31:00,
2013-03-15 20:36:00,64.2,50.0,30.14,ENE,62,0.0,0.0,60,0.00,,OVC,0.00,WeatherDisplay:10.37,2013-03-16 00:36:00,
2013-03-15 20:41:00,63.9,50.2,30.14,ENE,62,0.0,0.0,61,0.00,,OVC,0.00,WeatherDisplay:10.37,2013-03-16 00:41:00,
2013-03-15 20:46:00,63.5,49.8,30.14,ENE,62,0.0,0.0,61,0.00,,OVC,0.00,WeatherDisplay:10.37,2013-03-16 00:46:00,
2013-03-15 20:51:00,63.2,50.0,30.14,ENE,62,0.0,0.0,62,0.00,,OVC,0.00,WeatherDisplay:10.37,2013-03-16 00:51:00,
2013-03-15 20:56:00,62.7,49.5,30.14,ENE,62,0.0,0.0,62,0.00,,OVC,0.00,WeatherDisplay:10.37,2013-03-16 00:56:00,
2013-03-15 21:01:00,62.4,49.6,30.14,ENE,62,0.0,0.0,63,0.00,,OVC,0.00,WeatherDisplay:10.37,2013-03-16 01:01:00,
2013-03-15 21:06:00,62.1,49.8,30.14,ENE,62,0.0,0.0,64,0.00,,OVC,0.00,WeatherDisplay:10.37,2013-03-16 01:06:00,
2013-03-15 21:11:00,62.0,49.7,30.14,ENE,62,0.0,0.0,64,0.00,,OVC,0.00,WeatherDisplay:10.37,2013-03-16 01:11:00,
2013-03-15 21:16:00,61.8,49.9,30.15,ENE,62,0.0,0.0,65,0.00,,OVC,0.00,WeatherDisplay:10.37,2013-03-16 01:16:00,
2013-03-15 21:21:00,61.6,49.7,30.15,ENE,62,0.0,0.0,65,0.00,,OVC,0.00,WeatherDisplay:10.37,2013-03-16 01:21:00,
2013-03-15 21:26:00,61.5,50.0,30.15,ENE,62,0.0,0.0,66,0.00,,OVC,0.00,WeatherDisplay:10.37,2013-03-16 01:26:00,
2013-03-15 21:31:00,61.5,50.0,30.15,ENE,62,0.0,0.0,66,0.00,,OVC,0.00,WeatherDisplay:10.37,2013-03-16 01:31:00,
2013-03-15 21:36:00,61.3,49.8,30.15,ENE,62,0.0,0.0,66,0.00,,OVC,0.00,WeatherDisplay:10.37,2013-03-16 01:36:00,
2013-03-15 21:41:00,61.3,49.8,30.15,ENE,62,0.0,0.0,66,0.00,,OVC,0.00,WeatherDisplay:10.37,2013-03-16 01:41:00,
2013-03-15 21:47:00,61.2,50.2,30.15,ENE,62,0.0,0.0,67,0.00,,OVC,0.00,WeatherDisplay:10.37,2013-03-16 01:47:00,
2013-03-15 21:52:00,61.2,50.2,30.15,ENE,61,0.0,0.0,67,0.00,,OVC,0.00,WeatherDisplay:10.37,2013-03-16 01:52:00,
2013-03-15 21:57:00,61.3,50.2,30.15,ENE,62,0.0,0.0,67,0.00,,OVC,0.00,WeatherDisplay:10.37,2013-03-16 01:57:00,
2013-03-15 22:02:00,61.5,50.4,30.15,ENE,62,0.0,0.0,67,0.00,,OVC,0.00,WeatherDisplay:10.37,2013-03-16 02:02:00,
2013-03-15 22:07:00,61.5,50.8,30.15,ENE,61,0.0,0.0,68,0.00,,OVC,0.00,WeatherDisplay:10.37,2013-03-16 02:07:00,
2013-03-15 22:12:00,61.3,51.0,30.15,ENE,61,0.0,0.0,69,0.00,,OVC,0.00,WeatherDisplay:10.37,2013-03-16 02:12:00,
2013-03-15 22:17:00,61.3,51.0,30.15,ENE,61,0.0,0.0,69,0.00,,OVC,0.00,WeatherDisplay:10.37,2013-03-16 02:17:00,
2013-03-15 22:23:00,61.3,51.4,30.15,NE,51,0.0,0.0,70,0.00,,OVC,0.00,WeatherDisplay:10.37,2013-03-16 02:23:00,
2013-03-15 22:28:00,61.3,51.4,30.15,NE,51,0.0,0.0,70,0.00,,OVC,0.00,WeatherDisplay:10.37,2013-03-16 02:28:00,
2013-03-15 22:33:00,61.0,51.5,30.15,NE,51,0.0,0.0,71,0.00,,OVC,0.00,WeatherDisplay:10.37,2013-03-16 02:33:00,
2013-03-15 22:38:00,61.0,51.5,30.15,NE,51,0.0,0.0,71,0.00,,OVC,0.00,WeatherDisplay:10.37,2013-03-16 02:38:00,
2013-03-15 22:43:00,60.9,51.8,30.15,NE,51,0.0,0.0,72,0.00,,OVC,0.00,WeatherDisplay:10.37,2013-03-16 02:43:00,
2013-03-15 22:48:00,60.7,51.6,30.15,NE,51,0.0,0.0,72,0.00,,OVC,0.00,WeatherDisplay:10.37,2013-03-16 02:48:00,
2013-03-15 22:53:00,60.5,51.8,30.15,NE,51,0.0,0.0,73,0.00,,OVC,0.00,WeatherDisplay:10.37,2013-03-16 02:53:00,
2013-03-15 22:58:00,60.5,52.2,30.15,NE,51,0.0,0.0,74,0.00,,OVC,0.00,WeatherDisplay:10.37,2013-03-16 02:58:00,
2013-03-15 23:03:00,60.4,52.1,30.16,NE,51,0.0,0.0,74,0.00,,OVC,0.00,WeatherDisplay:10.37,2013-03-16 03:03:00,
2013-03-15 23:08:00,60.4,52.4,30.16,NE,51,0.0,0.0,75,0.00,,OVC,0.00,WeatherDisplay:10.37,2013-03-16 03:08:00,
2013-03-15 23:13:00,60.2,52.2,30.16,NE,51,0.0,0.0,75,0.00,,OVC,0.00,WeatherDisplay:10.37,2013-03-16 03:13:00,
2013-03-15 23:18:00,60.1,52.5,30.16,NE,51,1.2,1.2,76,0.00,,OVC,0.00,WeatherDisplay:10.37,2013-03-16 03:18:00,
2013-03-15 23:23:00,59.9,52.3,30.16,NE,51,0.0,0.0,76,0.00,,OVC,0.00,WeatherDisplay:10.37,2013-03-16 03:23:00,
2013-03-15 23:28:00,59.8,52.6,30.16,NE,51,0.0,0.0,77,0.00,,OVC,0.00,WeatherDisplay:10.37,2013-03-16 03:28:00,
2013-03-15 23:33:00,59.8,52.6,30.16,NE,50,0.0,0.0,77,0.00,,OVC,0.00,WeatherDisplay:10.37,2013-03-16 03:33:00,
2013-03-15 23:38:00,59.6,52.7,30.16,NE,50,0.0,0.0,78,0.00,,OVC,0.00,WeatherDisplay:10.37,2013-03-16 03:38:00,
2013-03-15 23:43:00,59.6,52.7,30.16,NE,49,2.3,2.3,78,0.00,,OVC,0.00,WeatherDisplay:10.37,2013-03-16 03:43:00,
2013-03-15 23:48:00,59.6,52.7,30.15,NE,49,0.0,0.0,78,0.00,,OVC,0.00,WeatherDisplay:10.37,2013-03-16 03:48:00,
2013-03-15 23:53:00,59.5,52.6,30.15,NE,49,0.0,0.0,78,0.00,,OVC,0.00,WeatherDisplay:10.37,2013-03-16 03:53:00,
2013-03-15 23:58:00,59.3,52.4,30.15,NE,49,0.0,0.0,78,0.00,,OVC,0.00,WeatherDisplay:10.37,2013-03-16 03:58:00,